Time;durP1;ratioP1;P1;durP2;ratioP2;P2;SDS_P1;SDS_P2;PMS_P1;PMS_P2;Temp;Humidity;BMP_temperature;BMP_pressure;BME280_temperature;BME280_humidity;BME280_pressure;Samples;Min_cycle;Max_cycle;Signal;HPM_P1;HPM_P2
2021/06/11 00:02:01;;;;;;;4.87;4.47;;;18.20;99.90;;;;;;5013127;28;20456;-49
2021/06/11 00:04:28;;;;;;;5.60;4.57;;;18.20;99.90;;;;;;5013367;28;20473;-50
2021/06/11 00:06:54;;;;;;;5.40;4.90;;;18.20;99.90;;;;;;5013368;28;20449;-50
2021/06/11 00:09:21;;;;;;;5.53;4.93;;;18.20;99.90;;;;;;5013188;28;20481;-49
2021/06/11 00:11:49;;;;;;;5.53;5.03;;;18.10;99.90;;;;;;5013304;28;20456;-50
2021/06/11 00:14:17;;;;;;;5.30;4.80;;;18.10;99.90;;;;;;5012575;28;20480;-49
2021/06/11 00:16:44;;;;;;;6.23;5.20;;;18.20;99.90;;;;;;5008974;28;20476;-49
2021/06/11 00:19:11;;;;;;;6.90;4.97;;;18.10;99.90;;;;;;5013052;28;20452;-50
2021/06/11 00:21:37;;;;;;;6.77;5.47;;;17.90;99.90;;;;;;5012686;28;20454;-49
2021/06/11 00:24:05;;;;;;;5.67;5.10;;;17.80;99.90;;;;;;5013231;28;20477;-49
2021/06/11 00:26:31;;;;;;;6.43;5.10;;;17.80;99.90;;;;;;5013334;28;20460;-49
2021/06/11 00:28:58;;;;;;;9.43;5.80;;;17.70;99.90;;;;;;5011826;28;20477;-49
2021/06/11 00:31:29;;;;;;;6.73;5.97;;;17.70;99.90;;;;;;5011309;28;20519;-49
2021/06/11 00:33:55;;;;;;;6.87;5.83;;;17.60;99.90;;;;;;4993237;28;20470;-49
2021/06/11 00:36:22;;;;;;;6.20;5.47;;;17.60;99.90;;;;;;4993557;28;20492;-49
2021/06/11 00:38:49;;;;;;;6.30;5.60;;;17.50;99.90;;;;;;4993230;28;20445;-49
2021/06/11 00:41:16;;;;;;;6.70;5.00;;;17.40;99.90;;;;;;4993424;28;20496;-49
2021/06/11 00:43:42;;;;;;;5.30;4.80;;;17.30;99.90;;;;;;4999591;28;20469;-49
2021/06/11 00:46:09;;;;;;;6.37;5.17;;;17.50;99.90;;;;;;5012313;28;20473;-50
2021/06/11 00:48:37;;;;;;;5.53;5.03;;;17.50;99.90;;;;;;5006879;28;20493;-49
2021/06/11 00:51:03;;;;;;;4.87;4.37;;;17.40;99.90;;;;;;5012805;28;20453;-49
2021/06/11 00:53:30;;;;;;;6.57;5.70;;;17.40;99.90;;;;;;5012041;28;20477;-49
2021/06/11 00:55:56;;;;;;;6.90;5.23;;;17.20;99.90;;;;;;5012645;28;20457;-49
2021/06/11 00:58:23;;;;;;;7.80;5.70;;;17.20;99.90;;;;;;5011699;28;20500;-49
2021/06/11 01:00:49;;;;;;;6.40;5.30;;;17.20;99.90;;;;;;5001599;28;20481;-49
2021/06/11 01:03:17;;;;;;;5.27;4.77;;;17.20;99.90;;;;;;5012141;28;20469;-49
2021/06/11 01:05:46;;;;;;;6.30;4.90;;;17.20;99.90;;;;;;5011294;28;20477;-50
2021/06/11 01:08:14;;;;;;;7.10;5.43;;;17.20;99.90;;;;;;5011855;28;20458;-49
2021/06/11 01:10:42;;;;;;;5.90;4.87;;;17.00;99.90;;;;;;5012216;28;20558;-49
2021/06/11 01:13:08;;;;;;;4.83;4.33;;;16.90;99.90;;;;;;5005774;28;20489;-50
2021/06/11 01:15:36;;;;;;;6.83;4.13;;;17.00;99.90;;;;;;4994168;28;20508;-49
2021/06/11 01:18:03;;;;;;;6.10;4.90;;;16.90;99.90;;;;;;5012124;28;20450;-50
2021/06/11 01:20:29;;;;;;;6.17;5.00;;;16.90;99.90;;;;;;5008381;28;20968;-50
2021/06/11 01:23:33;;;;;;;5.13;4.60;;;16.90;99.90;;;;;;4992420;28;20478;-49
2021/06/11 01:26:21;;;;;;;4.67;4.27;;;16.90;99.90;;;;;;4992452;28;20453;-49
2021/06/11 01:28:51;;;;;;;6.50;4.80;;;17.00;99.90;;;;;;4992450;28;20577;-49
2021/06/11 01:31:19;;;;;;;5.27;4.77;;;17.00;99.90;;;;;;4992342;28;20945;-49
2021/06/11 01:33:50;;;;;;;6.80;5.20;;;17.00;99.90;;;;;;5002656;28;20473;-49
2021/06/11 01:36:25;;;;;;;4.73;4.33;;;17.00;99.90;;;;;;4993454;28;20458;-49
2021/06/11 01:38:53;;;;;;;5.20;4.23;;;17.00;99.90;;;;;;4992757;28;20450;-50
2021/06/11 01:41:23;;;;;;;5.83;3.87;;;16.90;99.90;;;;;;4993402;28;20542;-49
2021/06/11 01:43:53;;;;;;;3.97;3.00;;;16.80;99.90;;;;;;4993449;28;20474;-49
2021/06/11 01:46:25;;;;;;;4.03;3.03;;;16.80;99.90;;;;;;4992249;28;20454;-49
2021/06/11 01:48:52;;;;;;;3.50;3.20;;;16.70;99.90;;;;;;5005397;28;20481;-50
2021/06/11 01:51:23;;;;;;;8.87;3.33;;;16.70;99.90;;;;;;5011794;28;20460;-49
2021/06/11 01:53:50;;;;;;;3.83;3.07;;;16.70;99.90;;;;;;5011938;28;20815;-50
2021/06/11 01:56:20;;;;;;;4.17;3.37;;;16.70;99.90;;;;;;4993952;28;20462;-49
2021/06/11 01:58:47;;;;;;;3.50;3.20;;;16.70;99.90;;;;;;5005655;28;20948;-50
2021/06/11 02:01:16;;;;;;;3.30;3.00;;;16.70;99.90;;;;;;5011658;28;20449;-50
2021/06/11 02:03:44;;;;;;;3.40;3.00;;;16.90;99.90;;;;;;4997947;28;20474;-49
2021/06/11 02:06:13;;;;;;;5.10;3.17;;;16.70;99.90;;;;;;5010446;28;20834;-49
2021/06/11 02:08:39;;;;;;;4.77;3.40;;;16.80;99.90;;;;;;5011066;28;20839;-49
2021/06/11 02:11:06;;;;;;;4.03;3.63;;;16.70;99.90;;;;;;5011329;28;20464;-49
2021/06/11 02:13:34;;;;;;;3.70;3.03;;;16.60;99.90;;;;;;5011220;28;21014;-49
2021/06/11 02:16:03;;;;;;;3.50;3.20;;;16.60;99.90;;;;;;5011093;28;20453;-51
2021/06/11 02:18:30;;;;;;;3.00;2.70;;;16.70;99.90;;;;;;5015707;28;20639;-49
2021/06/11 02:20:57;;;;;;;4.30;3.30;;;16.70;99.90;;;;;;5015585;28;20505;-49
2021/06/11 02:23:24;;;;;;;2.90;2.70;;;16.70;99.90;;;;;;5015161;28;20469;-50
2021/06/11 02:25:50;;;;;;;4.67;3.20;;;16.80;99.90;;;;;;5015287;28;20449;-48
2021/06/11 02:28:18;;;;;;;4.50;3.37;;;16.80;99.90;;;;;;5015236;28;20465;-50
2021/06/11 02:30:46;;;;;;;5.50;3.60;;;16.80;99.90;;;;;;5014761;28;20482;-49
2021/06/11 02:33:14;;;;;;;4.00;3.60;;;16.80;99.90;;;;;;5014281;28;20470;-49
2021/06/11 02:35:41;;;;;;;5.20;3.70;;;16.80;99.90;;;;;;5013194;28;20508;-49
2021/06/11 02:38:08;;;;;;;4.33;3.37;;;16.70;99.90;;;;;;5015187;28;20452;-49
2021/06/11 02:40:34;;;;;;;4.60;3.33;;;16.70;99.90;;;;;;5014974;28;20460;-49
2021/06/11 02:43:06;;;;;;;4.10;3.70;;;16.70;99.90;;;;;;5011024;28;20477;-49
2021/06/11 02:45:39;;;;;;;3.93;3.63;;;16.70;99.90;;;;;;5015019;28;20504;-50
2021/06/11 02:48:14;;;;;;;4.60;3.87;;;16.60;99.90;;;;;;5015142;28;20539;-50
2021/06/11 02:50:46;;;;;;;5.40;4.10;;;16.40;99.90;;;;;;5014885;28;20484;-50
2021/06/11 02:53:25;;;;;;;4.70;4.20;;;16.40;99.90;;;;;;5014481;28;20560;-50
2021/06/11 02:55:54;;;;;;;4.50;3.90;;;16.40;99.90;;;;;;5009938;28;20494;-50
2021/06/11 02:58:24;;;;;;;4.70;3.67;;;16.30;99.90;;;;;;5002921;28;20457;-50
2021/06/11 03:00:51;;;;;;;4.73;4.33;;;16.40;99.90;;;;;;5014697;28;20456;-49
2021/06/11 03:03:22;;;;;;;5.87;4.53;;;16.40;99.90;;;;;;5013162;28;20469;-49
2021/06/11 03:05:52;;;;;;;8.40;4.50;;;16.30;99.90;;;;;;4994899;28;20952;-49
2021/06/11 03:08:24;;;;;;;6.60;4.27;;;16.30;99.90;;;;;;4995007;28;20879;-48
2021/06/11 03:10:56;;;;;;;5.10;4.57;;;16.40;99.90;;;;;;5001598;28;20568;-49
2021/06/11 03:13:24;;;;;;;7.40;4.70;;;16.30;99.90;;;;;;4999498;28;20517;-49
2021/06/11 03:15:51;;;;;;;5.13;4.53;;;16.30;99.90;;;;;;5009605;28;20887;-49
2021/06/11 03:18:27;;;;;;;5.27;4.23;;;16.30;99.90;;;;;;4997307;28;20451;-49
2021/06/11 03:20:57;;;;;;;5.53;4.20;;;16.20;99.90;;;;;;4994752;28;20948;-49
2021/06/11 03:23:29;;;;;;;5.27;4.30;;;16.30;99.90;;;;;;4994572;28;20470;-49
2021/06/11 03:26:01;;;;;;;4.93;4.40;;;16.30;99.90;;;;;;5014308;28;20879;-50
2021/06/11 03:28:32;;;;;;;5.13;4.57;;;16.20;99.90;;;;;;5012940;28;21005;-50
2021/06/11 03:31:02;;;;;;;4.83;4.10;;;16.20;99.90;;;;;;5014101;28;20497;-49
2021/06/11 03:33:34;;;;;;;7.43;5.10;;;16.20;99.90;;;;;;5001052;28;20569;-50
2021/06/11 03:36:08;;;;;;;4.90;4.40;;;16.20;99.90;;;;;;4994592;28;20454;-49
2021/06/11 03:38:38;;;;;;;6.67;4.50;;;16.20;99.90;;;;;;5007866;28;20484;-49
2021/06/11 03:41:06;;;;;;;6.13;4.80;;;16.20;99.90;;;;;;5014110;28;20492;-49
2021/06/11 03:43:34;;;;;;;7.43;4.13;;;16.20;99.90;;;;;;5013844;28;20507;-49
2021/06/11 03:46:01;;;;;;;5.27;4.30;;;16.20;99.90;;;;;;5013795;28;20449;-49
2021/06/11 03:48:53;;;;;;;6.20;4.17;;;16.20;99.90;;;;;;5014020;28;20495;-49
2021/06/11 03:51:20;;;;;;;5.10;4.30;;;16.20;99.90;;;;;;5013323;28;20450;-49
2021/06/11 03:53:48;;;;;;;6.47;4.90;;;16.20;99.90;;;;;;5000842;28;21072;-49
2021/06/11 03:56:17;;;;;;;4.53;4.03;;;16.10;99.90;;;;;;5002006;28;20473;-49
2021/06/11 03:58:46;;;;;;;7.20;4.73;;;16.10;99.90;;;;;;4994230;28;20457;-49
2021/06/11 04:01:17;;;;;;;4.87;4.37;;;16.10;99.90;;;;;;4993956;28;20457;-49
2021/06/11 04:03:44;;;;;;;7.33;4.93;;;16.20;99.90;;;;;;4998724;28;20479;-49
2021/06/11 04:06:17;;;;;;;4.80;4.27;;;16.20;99.90;;;;;;5012923;28;20457;-49
2021/06/11 04:08:43;;;;;;;5.23;4.30;;;16.20;99.90;;;;;;5013578;28;20483;-48
2021/06/11 04:11:16;;;;;;;5.13;4.10;;;16.20;99.90;;;;;;5013585;28;20454;-49
2021/06/11 04:13:48;;;;;;;8.70;4.43;;;16.30;99.90;;;;;;5013088;28;20508;-49
2021/06/11 04:16:22;;;;;;;8.83;4.70;;;16.30;99.90;;;;;;5013440;28;20454;-49
2021/06/11 04:18:51;;;;;;;6.33;5.57;;;16.40;99.90;;;;;;5013222;28;20861;-49
2021/06/11 04:21:25;;;;;;;7.17;4.70;;;16.40;99.90;;;;;;5012929;28;20449;-49
2021/06/11 04:23:57;;;;;;;5.73;4.40;;;16.40;99.90;;;;;;5011335;28;20518;-49
2021/06/11 04:26:26;;;;;;;5.13;4.47;;;16.40;99.90;;;;;;5005228;28;20473;-49
2021/06/11 04:28:55;;;;;;;4.37;3.97;;;16.40;99.90;;;;;;5017338;28;20512;-49
2021/06/11 04:31:28;;;;;;;5.03;4.53;;;16.40;99.90;;;;;;5011807;28;20464;-49
2021/06/11 04:33:55;;;;;;;5.10;4.50;;;16.40;99.90;;;;;;5011968;28;20485;-49
2021/06/11 04:36:27;;;;;;;6.37;5.30;;;16.40;99.90;;;;;;5012069;28;20453;-48
2021/06/11 04:38:57;;;;;;;6.33;4.73;;;16.50;99.90;;;;;;5011274;28;20456;-49
2021/06/11 04:41:24;;;;;;;6.00;4.23;;;16.50;99.90;;;;;;5008113;28;21849;-49
2021/06/11 04:43:51;;;;;;;8.33;4.90;;;16.50;99.90;;;;;;5012024;28;20478;-49
2021/06/11 04:46:18;;;;;;;5.30;4.77;;;16.60;99.90;;;;;;5010697;28;20450;-49
2021/06/11 04:48:46;;;;;;;5.70;4.80;;;16.70;99.90;;;;;;5007922;28;20450;-49
2021/06/11 04:51:13;;;;;;;7.10;5.23;;;16.70;99.90;;;;;;5012516;28;20450;-48
2021/06/11 04:53:42;;;;;;;5.63;5.03;;;16.80;99.90;;;;;;5011773;28;20492;-48
2021/06/11 04:56:08;;;;;;;7.00;5.13;;;16.80;99.90;;;;;;5011998;28;20450;-50
2021/06/11 04:58:36;;;;;;;8.70;5.17;;;16.90;99.90;;;;;;5012003;28;20504;-50
2021/06/11 05:01:04;;;;;;;6.20;5.27;;;16.90;99.90;;;;;;5011874;28;20453;-48
2021/06/11 05:03:31;;;;;;;5.17;4.57;;;17.20;99.90;;;;;;5011795;28;20473;-49
2021/06/11 05:05:57;;;;;;;5.30;4.80;;;17.50;99.90;;;;;;5012273;28;20504;-49
2021/06/11 05:08:24;;;;;;;6.27;5.20;;;17.80;99.90;;;;;;5011405;28;20457;-49
2021/06/11 05:10:52;;;;;;;7.83;5.40;;;17.90;99.90;;;;;;5011449;28;20493;-49
2021/06/11 05:13:19;;;;;;;7.00;5.20;;;18.00;99.90;;;;;;5011264;28;20576;-49
2021/06/11 05:15:45;;;;;;;5.73;4.80;;;18.00;99.90;;;;;;5011987;28;20457;-51
2021/06/11 05:18:12;;;;;;;9.03;4.90;;;18.10;99.90;;;;;;4997813;28;20454;-50
2021/06/11 05:20:39;;;;;;;6.07;4.80;;;18.10;99.90;;;;;;5008689;28;20492;-48
2021/06/11 05:23:05;;;;;;;9.10;6.27;;;18.10;99.90;;;;;;5008344;28;20481;-48
2021/06/11 05:25:32;;;;;;;8.13;6.13;;;18.20;99.90;;;;;;5043133;22;21075;-55
2021/06/11 05:28:00;;;;;;;7.50;5.97;;;18.20;99.90;;;;;;5028879;28;21087;-56
2021/06/11 05:30:27;;;;;;;7.53;5.40;;;18.70;99.90;;;;;;5017867;28;20473;-57
2021/06/11 05:32:54;;;;;;;7.47;6.03;;;19.80;99.90;;;;;;5021866;28;20468;-55
2021/06/11 05:35:22;;;;;;;9.23;6.83;;;21.00;99.90;;;;;;5022686;28;20469;-56
2021/06/11 05:37:49;;;;;;;8.60;6.60;;;22.10;99.90;;;;;;5022412;28;20452;-56
2021/06/11 05:40:16;;;;;;;8.17;5.67;;;22.70;99.90;;;;;;5018250;28;20441;-56
2021/06/11 05:42:43;;;;;;;6.43;5.40;;;23.30;99.90;;;;;;5018448;28;20476;-57
2021/06/11 05:45:11;;;;;;;6.43;5.80;;;23.90;99.90;;;;;;5020391;28;20483;-55
2021/06/11 05:47:40;;;;;;;7.60;5.70;;;24.60;99.90;;;;;;5027886;28;20491;-56
2021/06/11 05:50:07;;;;;;;9.83;5.57;;;25.30;99.90;;;;;;5030259;28;20488;-57
2021/06/11 05:52:35;;;;;;;10.57;5.77;;;25.80;99.90;;;;;;5037094;28;20460;-56
2021/06/11 05:55:02;;;;;;;5.60;5.07;;;25.80;99.90;;;;;;5037712;28;20472;-56
2021/06/11 05:57:29;;;;;;;6.07;5.30;;;25.80;99.90;;;;;;5037926;28;20456;-56
2021/06/11 05:59:57;;;;;;;5.33;4.83;;;26.00;99.90;;;;;;5037205;28;20441;-56
2021/06/11 06:02:25;;;;;;;6.90;5.23;;;25.90;99.90;;;;;;5031327;28;20457;-56
2021/06/11 06:04:52;;;;;;;7.50;4.80;;;26.40;99.90;;;;;;5035077;28;20534;-57
2021/06/11 06:07:18;;;;;;;5.00;4.50;;;26.80;99.90;;;;;;5034927;28;20448;-56
2021/06/11 06:09:46;;;;;;;5.03;4.53;;;26.80;99.90;;;;;;5018077;28;20481;-56
2021/06/11 06:12:13;;;;;;;4.63;3.53;;;27.00;99.90;;;;;;5034089;28;20448;-56
2021/06/11 06:14:39;;;;;;;8.33;4.30;;;27.20;99.90;;;;;;5037757;28;20479;-56
2021/06/11 06:17:06;;;;;;;5.23;4.33;;;26.90;99.90;;;;;;5038119;28;20466;-56
2021/06/11 06:19:34;;;;;;;5.03;4.30;;;27.40;99.90;;;;;;5037617;28;20822;-56
2021/06/11 06:22:00;;;;;;;5.63;4.40;;;27.80;99.90;;;;;;5037612;28;20972;-56
2021/06/11 06:24:27;;;;;;;4.20;3.90;;;28.00;99.90;;;;;;5037384;28;20525;-56
2021/06/11 06:26:54;;;;;;;6.17;3.60;;;28.00;99.90;;;;;;5037647;28;20535;-56
2021/06/11 06:29:20;;;;;;;4.20;3.80;;;28.10;99.90;;;;;;5038004;28;20491;-56
2021/06/11 06:31:47;;;;;;;5.73;4.20;;;28.40;99.90;;;;;;5037634;28;20452;-56
2021/06/11 06:34:14;;;;;;;6.20;3.63;;;28.30;99.90;;;;;;5037244;28;20452;-56
2021/06/11 06:36:42;;;;;;;4.17;3.87;;;28.30;99.90;;;;;;5037389;28;20456;-57
2021/06/11 06:39:08;;;;;;;4.50;4.10;;;28.30;99.90;;;;;;5037648;28;20451;-57
2021/06/11 06:41:36;;;;;;;4.67;4.23;;;28.30;99.90;;;;;;5021425;28;20499;-56
2021/06/11 06:44:03;;;;;;;4.67;4.27;;;28.40;99.90;;;;;;5024261;28;20953;-57
2021/06/11 06:46:29;;;;;;;4.53;3.90;;;28.10;99.90;;;;;;5019421;28;20836;-56
2021/06/11 06:48:56;;;;;;;4.80;4.40;;;28.00;99.90;;;;;;5030013;28;20530;-56
2021/06/11 06:51:26;;;;;;;4.27;3.93;;;27.70;99.90;;;;;;5036334;28;20492;-56
2021/06/11 06:53:55;;;;;;;4.95;4.45;;;27.60;99.90;;;;;;5034623;28;20441;-57
2021/06/11 06:56:24;;;;;;;6.13;4.67;;;27.40;99.90;;;;;;5035354;28;20197;-57
2021/06/11 06:58:51;;;;;;;5.60;5.10;;;27.70;99.90;;;;;;5036711;28;20453;-57
2021/06/11 07:01:17;;;;;;;4.83;4.43;;;27.80;99.90;;;;;;5036465;28;20997;-57
2021/06/11 07:03:44;;;;;;;5.03;4.57;;;27.90;99.90;;;;;;5033229;28;20449;-56
2021/06/11 07:06:13;;;;;;;5.30;4.37;;;27.90;99.90;;;;;;5032797;28;20479;-57
2021/06/11 07:08:40;;;;;;;4.77;4.37;;;28.20;99.90;;;;;;5032660;28;20453;-57
2021/06/11 07:11:08;;;;;;;6.23;4.23;;;28.10;99.90;;;;;;5033425;28;20481;-57
2021/06/11 07:13:34;;;;;;;5.50;5.00;;;28.30;99.90;;;;;;5033249;28;20464;-57
2021/06/11 07:16:01;;;;;;;6.10;4.67;;;28.40;99.90;;;;;;5033517;28;20476;-56
2021/06/11 07:18:28;;;;;;;5.27;4.33;;;28.30;99.90;;;;;;5033716;28;20449;-57
2021/06/11 07:20:54;;;;;;;5.30;4.90;;;29.00;99.90;;;;;;5014059;28;20817;-57
2021/06/11 07:23:21;;;;;;;6.83;4.50;;;29.00;99.70;;;;;;5017455;28;21073;-57
2021/06/11 07:25:47;;;;;;;5.17;4.73;;;29.00;99.90;;;;;;5025520;28;20488;-57
2021/06/11 07:28:15;;;;;;;4.50;4.20;;;28.70;99.90;;;;;;5029451;28;20962;-58
2021/06/11 07:30:42;;;;;;;7.23;4.43;;;28.70;99.90;;;;;;5031145;28;20480;-57
2021/06/11 07:33:09;;;;;;;5.53;5.03;;;28.90;99.90;;;;;;5013792;28;20457;-58
2021/06/11 07:35:36;;;;;;;5.37;4.97;;;28.60;99.90;;;;;;5018512;28;20476;-57
2021/06/11 07:38:04;;;;;;;7.07;4.63;;;28.80;99.90;;;;;;5033845;28;20449;-57
2021/06/11 07:40:31;;;;;;;5.20;4.70;;;29.20;99.90;;;;;;5033753;28;20998;-58
2021/06/11 07:42:58;;;;;;;4.73;4.33;;;28.80;99.90;;;;;;5030850;28;20450;-58
2021/06/11 07:45:26;;;;;;;5.70;4.40;;;28.80;99.90;;;;;;5019910;28;20472;-57
2021/06/11 07:47:53;;;;;;;5.13;4.73;;;28.80;99.90;;;;;;5033496;28;20951;-57
2021/06/11 07:50:20;;;;;;;4.93;4.43;;;29.10;99.40;;;;;;5032974;28;20472;-57
2021/06/11 07:52:48;;;;;;;4.60;4.20;;;29.60;98.60;;;;;;5022224;28;20511;-58
2021/06/11 07:55:15;;;;;;;5.70;4.60;;;29.70;99.90;;;;;;5014885;28;20482;-58
2021/06/11 07:57:42;;;;;;;5.23;4.73;;;30.00;98.20;;;;;;5016131;28;20460;-57
2021/06/11 08:00:09;;;;;;;6.93;4.90;;;30.40;97.60;;;;;;5013240;28;20881;-58
2021/06/11 08:02:40;;;;;;;5.40;4.90;;;30.40;97.20;;;;;;5013343;28;20967;-57
2021/06/11 08:05:09;;;;;;;5.03;4.57;;;30.30;97.30;;;;;;5032202;28;20490;-58
2021/06/11 08:07:35;;;;;;;4.60;4.10;;;30.60;96.70;;;;;;5018954;28;20457;-58
2021/06/11 08:10:03;;;;;;;5.47;4.97;;;30.90;97.60;;;;;;5031895;28;20476;-58
2021/06/11 08:12:30;;;;;;;7.93;5.13;;;31.00;94.70;;;;;;5032695;28;20455;-57
2021/06/11 08:14:57;;;;;;;4.83;4.37;;;31.00;96.50;;;;;;5033001;28;20472;-58
2021/06/11 08:17:24;;;;;;;4.90;4.40;;;30.70;97.70;;;;;;5021491;28;20453;-57
2021/06/11 08:19:53;;;;;;;5.10;4.50;;;29.40;99.30;;;;;;5019685;28;20449;-58
2021/06/11 08:22:19;;;;;;;5.10;4.60;;;29.90;98.30;;;;;;5032483;28;20511;-57
2021/06/11 08:24:46;;;;;;;4.67;4.27;;;30.40;98.20;;;;;;5032433;28;20530;-57
2021/06/11 08:27:13;;;;;;;5.33;4.83;;;30.40;95.60;;;;;;5023029;28;20461;-57
2021/06/11 08:29:40;;;;;;;6.80;4.63;;;30.70;95.80;;;;;;5012899;28;20539;-57
2021/06/11 08:32:07;;;;;;;4.77;4.47;;;30.90;97.20;;;;;;5012896;28;20504;-57
2021/06/11 08:34:36;;;;;;;6.20;4.50;;;31.20;94.60;;;;;;5015177;28;20534;-58
2021/06/11 08:37:05;;;;;;;4.73;4.33;;;31.10;93.60;;;;;;5031569;28;20456;-57
2021/06/11 08:39:33;;;;;;;5.73;5.23;;;31.30;94.90;;;;;;5026168;28;20875;-58
2021/06/11 08:42:00;;;;;;;6.20;4.40;;;31.50;94.80;;;;;;5018869;28;20453;-58
2021/06/11 08:44:27;;;;;;;5.00;4.60;;;31.40;94.70;;;;;;5022948;28;20487;-57
2021/06/11 08:46:55;;;;;;;4.73;4.33;;;31.40;92.80;;;;;;5024610;28;20872;-57
2021/06/11 08:49:24;;;;;;;4.83;4.43;;;31.60;92.60;;;;;;5013167;28;20453;-57
2021/06/11 08:51:51;;;;;;;5.43;4.93;;;31.90;91.70;;;;;;5011628;28;20442;-57
2021/06/11 08:54:19;;;;;;;5.73;5.23;;;32.10;93.20;;;;;;5011877;28;20545;-57
2021/06/11 08:56:46;;;;;;;5.43;4.93;;;32.20;93.80;;;;;;5028614;28;20499;-57
2021/06/11 08:59:13;;;;;;;6.27;5.67;;;31.80;94.00;;;;;;5030311;28;20823;-57
2021/06/11 09:01:39;;;;;;;6.40;5.80;;;31.10;96.90;;;;;;5012159;28;20469;-58
2021/06/11 09:04:06;;;;;;;6.50;5.87;;;31.10;97.10;;;;;;5011688;28;20457;-57
2021/06/11 09:06:33;;;;;;;6.60;5.77;;;29.70;99.90;;;;;;5026643;28;20874;-56
2021/06/11 09:09:01;;;;;;;8.47;6.03;;;29.20;99.90;;;;;;5029797;28;20511;-57
2021/06/11 09:11:31;;;;;;;6.87;6.27;;;28.80;99.90;;;;;;5011383;28;20938;-57
2021/06/11 09:14:04;;;;;;;7.30;6.30;;;27.70;99.90;;;;;;5011365;28;20969;-57
2021/06/11 09:16:40;;;;;;;6.70;6.10;;;28.60;99.90;;;;;;5026108;28;20471;-57
2021/06/11 09:19:07;;;;;;;6.93;5.90;;;29.40;99.90;;;;;;5030074;28;20437;-57
2021/06/11 09:21:36;;;;;;;7.10;5.77;;;29.20;99.90;;;;;;5029560;28;20603;-57
2021/06/11 09:24:21;;;;;;;7.50;6.90;;;29.50;99.90;;;;;;5029578;28;20444;-56
2021/06/11 09:27:08;;;;;;;7.10;6.47;;;28.60;99.90;;;;;;5012167;28;20456;-57
2021/06/11 09:29:37;;;;;;;6.10;5.50;;;28.30;99.90;;;;;;5011383;28;20453;-57
2021/06/11 09:32:22;;;;;;;6.23;5.50;;;29.20;99.90;;;;;;5011251;28;20452;-57
2021/06/11 09:34:50;;;;;;;6.37;5.77;;;28.70;99.90;;;;;;5011421;28;20983;-57
2021/06/11 09:37:19;;;;;;;6.93;6.17;;;28.80;99.90;;;;;;5017671;28;20471;-57
2021/06/11 09:39:49;;;;;;;7.97;6.47;;;27.10;99.90;;;;;;5013931;28;21262;-56
2021/06/11 09:42:19;;;;;;;8.70;6.10;;;26.40;99.90;;;;;;5010934;28;20441;-56
2021/06/11 09:44:57;;;;;;;7.90;6.70;;;26.50;99.90;;;;;;5011126;28;20469;-56
2021/06/11 09:47:40;;;;;;;7.20;6.50;;;26.20;99.90;;;;;;5011075;28;20454;-56
2021/06/11 09:50:10;;;;;;;6.90;6.20;;;26.20;99.90;;;;;;5010930;28;20493;-56
2021/06/11 09:52:55;;;;;;;8.10;6.27;;;26.20;99.90;;;;;;5010893;28;20454;-56
2021/06/11 09:55:30;;;;;;;5.47;5.07;;;26.70;99.90;;;;;;5015022;28;20500;-56
2021/06/11 09:58:10;;;;;;;6.40;5.77;;;27.80;99.90;;;;;;5028813;28;20455;-56
2021/06/11 10:00:38;;;;;;;6.13;5.37;;;27.90;99.90;;;;;;5029715;28;20447;-57
2021/06/11 10:03:12;;;;;;;6.83;6.00;;;28.00;99.90;;;;;;5029399;28;20447;-57
2021/06/11 10:05:39;;;;;;;5.80;5.30;;;28.40;99.90;;;;;;5029087;28;20477;-56
2021/06/11 10:08:07;;;;;;;6.43;5.83;;;28.10;99.90;;;;;;5029392;28;20452;-57
2021/06/11 10:10:34;;;;;;;6.03;5.43;;;28.20;99.90;;;;;;5029697;28;20488;-56
2021/06/11 10:13:01;;;;;;;5.70;5.20;;;27.30;99.90;;;;;;5029036;28;20452;-56
2021/06/11 10:15:31;;;;;;;6.10;5.50;;;27.10;99.90;;;;;;5025149;28;20469;-56
2021/06/11 10:17:58;;;;;;;5.00;4.60;;;26.60;99.90;;;;;;5011057;28;20549;-56
2021/06/11 10:20:25;;;;;;;5.43;4.93;;;27.40;99.90;;;;;;5010945;28;20519;-56
2021/06/11 10:22:51;;;;;;;5.40;4.90;;;26.90;99.90;;;;;;5010573;28;20445;-56
2021/06/11 10:25:18;;;;;;;5.03;4.63;;;27.30;99.90;;;;;;5016423;28;20534;-57
2021/06/11 10:27:45;;;;;;;5.57;5.07;;;26.80;99.90;;;;;;5026540;28;20456;-56
2021/06/11 10:30:13;;;;;;;5.10;4.70;;;27.10;99.90;;;;;;5029358;28;20479;-56
2021/06/11 10:32:45;;;;;;;5.27;4.77;;;27.90;99.90;;;;;;5028847;28;20449;-56
2021/06/11 10:35:13;;;;;;;5.10;4.70;;;27.80;99.90;;;;;;5026813;28;20472;-57
2021/06/11 10:37:41;;;;;;;5.83;5.23;;;28.40;99.90;;;;;;5025211;28;20448;-56
2021/06/11 10:40:24;;;;;;;5.87;5.37;;;28.40;99.90;;;;;;5032884;28;20445;-56
2021/06/11 10:42:51;;;;;;;5.83;5.23;;;27.20;99.90;;;;;;5019536;28;20448;-56
2021/06/11 10:45:45;;;;;;;5.70;5.20;;;26.60;99.90;;;;;;5017547;28;20994;-57
2021/06/11 10:48:13;;;;;;;6.93;4.90;;;26.10;99.90;;;;;;5032498;28;20444;-57
2021/06/11 10:50:40;;;;;;;6.10;5.37;;;25.80;99.90;;;;;;5032933;28;20578;-56
2021/06/11 10:53:12;;;;;;;6.40;5.33;;;25.90;99.90;;;;;;5022343;28;20476;-57
2021/06/11 10:55:51;;;;;;;6.03;5.53;;;25.80;99.90;;;;;;5033560;28;20830;-57
2021/06/11 10:58:36;;;;;;;6.67;5.17;;;25.60;99.90;;;;;;5024711;28;20882;-56
2021/06/11 11:01:26;;;;;;;5.33;4.83;;;25.20;99.90;;;;;;5015077;28;20433;-56
2021/06/11 11:03:56;;;;;;;6.87;6.00;;;25.30;99.90;;;;;;5014809;28;20441;-56
2021/06/11 11:06:32;;;;;;;6.03;5.43;;;25.20;99.90;;;;;;5016833;28;20829;-56
2021/06/11 11:09:02;;;;;;;6.50;6.00;;;25.90;99.90;;;;;;5029365;28;20441;-56
2021/06/11 11:11:41;;;;;;;7.93;6.37;;;26.10;99.90;;;;;;5028675;28;20554;-56
2021/06/11 11:14:21;;;;;;;7.10;5.97;;;25.70;99.90;;;;;;5031073;28;20882;-55
2021/06/11 11:16:58;;;;;;;6.80;6.20;;;26.10;99.90;;;;;;5016554;28;20833;-57
2021/06/11 11:19:52;;;;;;;6.30;5.70;;;26.20;99.90;;;;;;5018714;28;20449;-56
2021/06/11 11:22:30;;;;;;;6.77;6.17;;;26.70;99.90;;;;;;5024774;28;20468;-56
2021/06/11 11:24:58;;;;;;;8.93;7.03;;;27.30;99.00;;;;;;5013410;28;20481;-56
2021/06/11 11:27:25;;;;;;;7.80;7.10;;;26.50;99.90;;;;;;5013709;28;20950;-56
2021/06/11 11:29:53;;;;;;;7.93;7.13;;;26.20;99.90;;;;;;5032007;28;20440;-56
2021/06/11 11:32:20;;;;;;;7.23;6.53;;;26.20;99.90;;;;;;5028203;28;20453;-57
2021/06/11 11:37:15;;;;;;;8.10;7.40;;;26.60;99.90;;;;;;5053771;22;20495;-52
2021/06/11 11:39:42;;;;;;;7.43;6.70;;;26.70;99.90;;;;;;5033386;28;20514;-52
2021/06/11 11:42:11;;;;;;;7.10;6.50;;;26.80;99.90;;;;;;5032286;28;20460;-52
2021/06/11 11:44:38;;;;;;;7.17;6.57;;;26.70;98.20;;;;;;5033556;28;20448;-52
2021/06/11 11:47:05;;;;;;;8.80;6.87;;;26.90;99.90;;;;;;5017966;28;21047;-52
2021/06/11 11:49:31;;;;;;;7.30;6.70;;;26.80;98.00;;;;;;5031310;28;20468;-52
2021/06/11 11:52:01;;;;;;;7.10;6.40;;;26.80;96.90;;;;;;5024452;28;20481;-53
2021/06/11 11:54:31;;;;;;;7.60;6.80;;;27.00;97.30;;;;;;5031813;28;20440;-49
2021/06/11 11:56:57;;;;;;;7.53;6.83;;;27.30;95.70;;;;;;5031465;28;20461;-50
2021/06/11 11:59:24;;;;;;;6.80;6.20;;;27.20;95.90;;;;;;5031710;28;20437;-49
2021/06/11 12:01:50;;;;;;;7.47;6.80;;;27.30;95.70;;;;;;5030051;28;20440;-51
2021/06/11 12:04:18;;;;;;;7.40;6.57;;;27.30;97.60;;;;;;5022827;28;20449;-49
2021/06/11 12:06:44;;;;;;;7.20;6.60;;;27.20;99.10;;;;;;5031221;28;21016;-49
2021/06/11 12:09:12;;;;;;;6.50;6.00;;;27.50;96.90;;;;;;5031558;28;20444;-49
2021/06/11 12:11:40;;;;;;;8.07;7.37;;;27.30;99.90;;;;;;5031387;28;20514;-49
2021/06/11 12:14:07;;;;;;;7.73;7.03;;;27.10;99.90;;;;;;5013173;28;20445;-49
2021/06/11 12:16:34;;;;;;;7.27;6.57;;;26.60;98.60;;;;;;5012583;28;20967;-49
2021/06/11 12:19:01;;;;;;;6.83;6.23;;;26.20;99.90;;;;;;5012805;28;20445;-48
2021/06/11 12:21:30;;;;;;;7.83;7.17;;;26.40;99.90;;;;;;5030878;28;20483;-49
2021/06/11 12:23:57;;;;;;;7.60;6.90;;;26.10;99.90;;;;;;5014004;28;20495;-49
2021/06/11 12:26:27;;;;;;;7.73;7.03;;;26.00;99.90;;;;;;5012514;28;20461;-52
2021/06/11 12:28:56;;;;;;;7.30;6.70;;;26.30;99.90;;;;;;5024596;28;20472;-52
2021/06/11 12:31:22;;;;;;;9.73;7.63;;;26.50;99.90;;;;;;5023976;28;20492;-52
2021/06/11 12:33:49;;;;;;;7.50;6.90;;;26.60;99.60;;;;;;5029499;28;20486;-51
2021/06/11 12:36:16;;;;;;;7.17;6.57;;;26.60;99.90;;;;;;5032443;28;20484;-51
2021/06/11 12:38:42;;;;;;;8.27;7.47;;;26.90;99.50;;;;;;5032325;28;20452;-52
2021/06/11 12:41:12;;;;;;;9.53;7.13;;;27.20;98.70;;;;;;5032731;28;20475;-51
2021/06/11 12:46:27;;;;;;;7.53;6.83;;;26.80;99.90;;;;;;5031745;28;20885;-52
2021/06/11 12:48:54;;;;;;;7.23;6.63;;;26.70;99.60;;;;;;5032403;28;20452;-51
2021/06/11 12:51:22;;;;;;;7.50;6.87;;;26.50;99.90;;;;;;5032055;28;20496;-51
2021/06/11 12:53:48;;;;;;;7.40;6.70;;;26.30;99.90;;;;;;5032192;28;20449;-52
2021/06/11 12:56:16;;;;;;;8.93;7.40;;;26.60;99.30;;;;;;5031761;28;20468;-52
2021/06/11 12:58:42;;;;;;;7.50;6.80;;;26.60;98.70;;;;;;5031729;28;20453;-52
2021/06/11 13:01:09;;;;;;;7.70;7.00;;;26.20;98.70;;;;;;5031328;28;20499;-51
2021/06/11 13:03:37;;;;;;;7.73;6.90;;;26.00;99.90;;;;;;5031611;28;20530;-51